Time;durP1;ratioP1;P1;durP2;ratioP2;P2;SDS_P1;SDS_P2;PMS_P1;PMS_P2;Temp;Humidity;BMP_temperature;BMP_pressure;BME280_temperature;BME280_humidity;BME280_pressure;Samples;Min_cycle;Max_cycle;Signal;HPM_P1;HPM_P2
2023/08/21 00:00:44;;;;;;;6.78;2.78;;;;;;;21.87;84.91;102159.72;6057054;29;20897;-68
2023/08/21 00:04:05;;;;;;;6.90;2.20;;;;;;;21.94;85.03;102156.09;6056688;29;20269;-67
2023/08/21 00:07:26;;;;;;;4.53;2.80;;;;;;;21.87;85.20;102159.72;6054087;29;20267;-67
2023/08/21 00:10:47;;;;;;;6.32;3.15;;;;;;;21.98;85.26;102154.72;6054669;29;20233;-67
2023/08/21 00:14:09;;;;;;;8.05;3.13;;;;;;;21.74;85.63;102154.78;6050710;29;20707;-67
2023/08/21 00:17:31;;;;;;;9.10;3.38;;;;;;;21.71;85.82;102151.53;6052769;29;20332;-67
2023/08/21 00:20:52;;;;;;;3.30;2.88;;;;;;;21.73;85.75;102152.22;6055255;29;20225;-67
2023/08/21 00:24:13;;;;;;;9.95;3.90;;;;;;;21.64;85.63;102156.00;6053221;29;20233;-67
2023/08/21 00:27:34;;;;;;;5.45;3.20;;;;;;;21.52;86.00;102154.69;6056076;29;20229;-68
2023/08/21 00:31:02;;;;;;;3.83;2.97;;;;;;;21.48;86.45;102157.78;6029739;29;20233;-67
2023/08/21 00:34:23;;;;;;;4.97;3.22;;;;;;;21.61;86.35;102157.22;6051892;29;20236;-67
2023/08/21 00:37:44;;;;;;;3.72;3.13;;;;;;;21.58;86.35;102156.72;6052396;29;20229;-67
2023/08/21 00:41:05;;;;;;;6.57;2.65;;;;;;;21.56;86.34;102156.91;6055774;29;20246;-67
2023/08/21 00:44:27;;;;;;;4.47;3.40;;;;;;;21.65;85.98;102158.59;6049873;29;20275;-67
2023/08/21 00:47:49;;;;;;;3.25;2.78;;;;;;;21.45;86.26;102158.13;6057135;29;20233;-67
2023/08/21 00:51:12;;;;;;;5.63;2.97;;;;;;;21.41;86.58;102158.66;6054946;29;20241;-67
2023/08/21 00:54:33;;;;;;;5.88;2.92;;;;;;;21.38;87.05;102159.03;6050561;29;20232;-67
2023/08/21 00:57:54;;;;;;;4.13;3.10;;;;;;;21.43;87.33;102159.34;6046111;29;20225;-67
2023/08/21 01:01:18;;;;;;;5.63;2.63;;;;;;;21.49;86.94;102166.88;6054817;29;20240;-67
2023/08/21 01:04:41;;;;;;;8.07;2.97;;;;;;;21.17;87.25;102165.03;6061386;29;20236;-67
2023/08/21 01:08:06;;;;;;;6.82;4.10;;;;;;;21.11;87.63;102160.25;6038399;29;20442;-67
2023/08/21 01:11:35;;;;;;;7.28;3.33;;;;;;;21.10;88.18;102157.69;6058876;29;20225;-67
2023/08/21 01:15:00;;;;;;;3.83;2.65;;;;;;;21.06;88.48;102159.06;6027922;29;20233;-67
2023/08/21 01:18:22;;;;;;;5.10;2.80;;;;;;;21.08;88.63;102159.75;6057869;29;20245;-67
2023/08/21 01:21:45;;;;;;;3.92;2.70;;;;;;;21.09;88.57;102161.47;6058716;29;20249;-67
2023/08/21 01:25:09;;;;;;;4.53;3.05;;;;;;;21.10;88.59;102158.56;6059827;29;20241;-67
2023/08/21 01:28:31;;;;;;;3.55;2.63;;;;;;;21.10;88.70;102160.44;6052215;29;20233;-67
2023/08/21 01:32:02;;;;;;;4.78;2.97;;;;;;;21.03;88.66;102156.66;6039728;29;20674;-68
2023/08/21 01:35:24;;;;;;;4.63;3.15;;;;;;;21.13;88.75;102163.66;6060434;29;20233;-67
2023/08/21 01:38:45;;;;;;;5.07;2.88;;;;;;;20.96;89.20;102166.59;6053937;29;20249;-68
2023/08/21 01:42:08;;;;;;;5.63;2.65;;;;;;;21.00;89.06;102171.56;6040215;29;20434;-66
2023/08/21 01:45:29;;;;;;;3.35;2.70;;;;;;;20.87;89.09;102171.22;6038232;29;20703;-67
2023/08/21 01:48:49;;;;;;;5.57;2.83;;;;;;;20.86;89.65;102168.66;6059715;29;20240;-68
2023/08/21 01:52:10;;;;;;;17.10;2.90;;;;;;;20.86;89.76;102171.38;6047045;29;20258;-68
2023/08/21 01:55:31;;;;;;;5.70;3.03;;;;;;;20.81;89.54;102162.81;6053931;29;20273;-67
2023/08/21 01:58:54;;;;;;;6.43;2.97;;;;;;;20.86;89.58;102165.91;6045956;29;20245;-68
2023/08/21 02:02:14;;;;;;;5.35;3.85;;;;;;;20.66;89.90;102165.38;6035293;29;20233;-68
2023/08/21 02:05:39;;;;;;;5.38;3.10;;;;;;;20.65;90.27;102155.44;6045001;29;20237;-67
2023/08/21 02:09:00;;;;;;;3.63;2.72;;;;;;;20.77;90.28;102161.44;6054884;29;20750;-68
2023/08/21 02:12:21;;;;;;;2.95;2.55;;;;;;;20.84;90.23;102165.22;6048894;29;20245;-67
2023/08/21 02:15:43;;;;;;;9.43;3.85;;;;;;;20.79;90.43;102159.38;6050888;29;20810;-67
2023/08/21 02:19:05;;;;;;;4.07;2.65;;;;;;;20.77;90.76;102164.19;6043660;29;20244;-67
2023/08/21 02:22:26;;;;;;;7.40;3.13;;;;;;;20.57;90.41;102171.88;6052109;29;20688;-67
2023/08/21 02:25:48;;;;;;;3.22;2.60;;;;;;;20.47;90.71;102174.78;6037014;29;20237;-67
2023/08/21 02:29:09;;;;;;;4.90;3.25;;;;;;;20.59;91.23;102172.56;6040081;29;20237;-67
2023/08/21 02:32:32;;;;;;;3.38;2.60;;;;;;;20.56;91.47;102172.91;6049922;29;20252;-67
2023/08/21 02:35:55;;;;;;;2.65;2.45;;;;;;;20.57;92.14;102180.94;6039543;29;20324;-67
2023/08/21 02:39:16;;;;;;;5.15;3.20;;;;;;;20.56;92.48;102165.56;6055852;29;20541;-68
2023/08/21 02:42:37;;;;;;;3.42;2.42;;;;;;;20.59;92.38;102176.16;6055158;29;20340;-67
2023/08/21 02:45:57;;;;;;;5.93;2.97;;;;;;;20.55;92.48;102174.78;6021483;29;20256;-67
2023/08/21 02:49:19;;;;;;;5.55;2.75;;;;;;;20.53;92.40;102182.31;6041648;29;20241;-67
2023/08/21 02:52:40;;;;;;;3.95;2.90;;;;;;;20.47;92.58;102177.50;6053031;29;20686;-68
2023/08/21 02:56:02;;;;;;;8.02;3.72;;;;;;;20.47;92.64;102182.13;6044362;29;20234;-67
2023/08/21 02:59:23;;;;;;;4.10;3.17;;;;;;;20.48;92.71;102190.22;6049952;29;20267;-67
2023/08/21 03:02:44;;;;;;;8.02;3.78;;;;;;;20.56;92.42;102183.88;6050664;29;20233;-68
2023/08/21 03:06:06;;;;;;;7.50;4.78;;;;;;;20.47;92.56;102193.09;6052828;29;20245;-66
2023/08/21 03:09:27;;;;;;;5.65;3.53;;;;;;;20.41;92.55;102193.75;6042475;29;20607;-67
2023/08/21 03:12:47;;;;;;;6.68;2.72;;;;;;;20.52;92.55;102185.22;6059753;29;20501;-67
2023/08/21 03:16:08;;;;;;;7.40;4.45;;;;;;;20.46;91.97;102188.66;6057170;29;20264;-67
2023/08/21 03:19:29;;;;;;;6.47;4.18;;;;;;;20.45;92.07;102187.78;6044672;29;20249;-68
2023/08/21 03:22:52;;;;;;;10.32;9.30;;;;;;;20.44;92.16;102190.72;6047504;29;20233;-69
2023/08/21 03:26:12;;;;;;;9.50;6.70;;;;;;;20.47;91.99;102193.09;6058988;29;20234;-68
2023/08/21 03:29:33;;;;;;;7.10;5.97;;;;;;;20.42;91.89;102190.00;6055021;29;20241;-67
2023/08/21 03:32:54;;;;;;;9.45;5.05;;;;;;;20.47;91.51;102190.34;6055693;29;20229;-68
2023/08/21 03:36:15;;;;;;;13.65;4.72;;;;;;;20.36;91.54;102196.16;6046967;29;20523;-66
2023/08/21 03:39:38;;;;;;;7.68;5.50;;;;;;;20.34;91.45;102190.00;6058020;29;20516;-66
2023/08/21 03:43:02;;;;;;;6.20;3.88;;;;;;;20.29;91.05;102185.03;6057610;29;20264;-67
2023/08/21 03:46:23;;;;;;;5.32;3.08;;;;;;;20.35;91.40;102192.56;6044760;29;20619;-67
2023/08/21 03:49:44;;;;;;;5.15;3.35;;;;;;;20.10;91.50;102193.47;6056160;29;20597;-66
2023/08/21 03:53:05;;;;;;;4.97;3.35;;;;;;;20.15;91.54;102193.00;6053258;29;20264;-68
2023/08/21 03:56:27;;;;;;;6.47;3.40;;;;;;;20.24;91.64;102189.25;6053738;29;20233;-67
2023/08/21 03:59:49;;;;;;;7.70;3.58;;;;;;;20.25;91.40;102188.25;6037593;29;20241;-66
2023/08/21 04:03:10;;;;;;;4.70;3.03;;;;;;;20.25;91.49;102191.84;6051358;29;20233;-67
2023/08/21 04:06:31;;;;;;;3.55;2.55;;;;;;;20.34;91.22;102192.75;6049800;29;20240;-66
2023/08/21 04:09:51;;;;;;;6.80;2.92;;;;;;;20.31;91.36;102185.72;6041486;29;20300;-68
2023/08/21 04:13:14;;;;;;;11.20;7.45;;;;;;;20.25;91.27;102189.13;6049027;29;20237;-67
2023/08/21 04:16:35;;;;;;;11.88;10.80;;;;;;;20.21;91.53;102185.00;6051367;29;20399;-67
2023/08/21 04:19:56;;;;;;;7.22;6.50;;;;;;;20.19;91.97;102188.88;6057152;29;20540;-68
2023/08/21 04:23:17;;;;;;;15.90;10.10;;;;;;;20.31;91.63;102196.66;6052708;29;20241;-66
2023/08/21 04:26:38;;;;;;;13.07;8.35;;;;;;;20.28;91.61;102198.84;6051325;29;20253;-68
2023/08/21 04:30:00;;;;;;;7.47;6.70;;;;;;;20.39;91.19;102199.41;6051470;29;20225;-68
2023/08/21 04:33:21;;;;;;;8.52;5.40;;;;;;;20.33;91.23;102194.63;6031152;29;20245;-68
2023/08/21 04:36:42;;;;;;;8.88;4.65;;;;;;;20.47;90.95;102202.19;6051532;29;20528;-69
2023/08/21 04:40:08;;;;;;;8.65;3.70;;;;;;;20.42;90.59;102210.03;6047612;29;20598;-68
2023/08/21 04:43:29;;;;;;;8.93;4.13;;;;;;;20.34;90.73;102199.06;6038085;29;20244;-69
2023/08/21 04:46:51;;;;;;;10.55;5.88;;;;;;;20.41;90.66;102205.59;6033480;29;20230;-68
2023/08/21 04:50:13;;;;;;;7.05;4.80;;;;;;;20.51;90.78;102209.03;6045716;29;20510;-68
2023/08/21 04:53:34;;;;;;;9.20;4.07;;;;;;;20.63;90.34;102210.41;6056324;29;20367;-68
2023/08/21 04:56:55;;;;;;;6.43;3.40;;;;;;;20.64;89.85;102219.50;6038767;29;20233;-67
2023/08/21 05:00:16;;;;;;;5.10;2.72;;;;;;;20.66;89.33;102199.13;6034878;29;20237;-67
2023/08/21 05:03:39;;;;;;;4.63;2.72;;;;;;;20.70;88.49;102197.75;6059469;29;20230;-67
2023/08/21 05:07:00;;;;;;;7.63;2.95;;;;;;;20.59;88.43;102202.69;6041927;29;20513;-68
2023/08/21 05:10:21;;;;;;;4.90;2.45;;;;;;;20.60;88.22;102213.50;6041494;29;20241;-67
2023/08/21 05:13:42;;;;;;;19.08;15.52;;;;;;;20.73;87.93;102217.63;6037883;29;20375;-67
2023/08/21 05:17:05;;;;;;;10.38;5.95;;;;;;;20.89;87.74;102210.28;6042978;29;20237;-68
2023/08/21 05:20:28;;;;;;;4.90;3.10;;;;;;;20.90;87.09;102219.38;6053829;29;20540;-67
2023/08/21 05:23:49;;;;;;;2.63;2.30;;;;;;;20.99;86.66;102215.59;6040185;29;20356;-67
2023/08/21 05:27:10;;;;;;;12.43;4.03;;;;;;;21.18;86.56;102215.28;6059655;29;20236;-68
2023/08/21 05:30:31;;;;;;;7.03;3.33;;;;;;;21.21;86.03;102204.84;6051252;29;22878;-68
2023/08/21 05:33:52;;;;;;;4.07;2.20;;;;;;;20.81;86.18;102203.94;6043248;29;20236;-67
2023/08/21 05:37:14;;;;;;;5.57;2.58;;;;;;;20.93;86.76;102199.81;6048544;29;20237;-68
2023/08/21 05:40:35;;;;;;;8.55;2.92;;;;;;;20.84;87.28;102212.66;6050645;29;20249;-69
2023/08/21 05:43:57;;;;;;;6.57;2.72;;;;;;;21.24;86.82;102209.09;6033888;29;20233;-69
2023/08/21 05:47:19;;;;;;;7.63;3.17;;;;;;;21.29;86.26;102220.41;6040935;29;20233;-70
2023/08/21 05:50:40;;;;;;;5.55;3.13;;;;;;;21.38;86.09;102212.00;6038683;29;20619;-67
2023/08/21 05:54:02;;;;;;;10.63;3.55;;;;;;;20.98;85.58;102222.97;6042256;29;20735;-67
2023/08/21 05:57:23;;;;;;;4.45;2.42;;;;;;;21.07;86.21;102219.22;6038452;29;21686;-68
2023/08/21 06:00:47;;;;;;;5.97;1.90;;;;;;;21.32;86.08;102223.66;6039344;29;20644;-67
2023/08/21 06:04:08;;;;;;;10.27;3.25;;;;;;;21.38;85.42;102222.97;6038662;29;20320;-68
2023/08/21 06:07:36;;;;;;;17.58;15.85;;;;;;;21.31;85.92;102229.34;6059076;29;20840;-66
2023/08/21 06:10:58;;;;;;;5.68;3.67;;;;;;;21.67;84.68;102227.03;6040869;29;20233;-68
2023/08/21 06:14:19;;;;;;;8.07;3.33;;;;;;;21.61;84.07;102228.59;6022124;29;20237;-68
2023/08/21 06:17:42;;;;;;;6.22;2.17;;;;;;;21.60;83.64;102235.13;6048295;29;20237;-68
2023/08/21 06:21:02;;;;;;;5.38;2.17;;;;;;;21.77;83.40;102228.56;6059325;29;20287;-68
2023/08/21 06:24:24;;;;;;;6.03;2.45;;;;;;;22.17;82.28;102233.91;6035147;29;20233;-68
2023/08/21 06:27:51;;;;;;;4.95;2.75;;;;;;;21.85;82.65;102236.81;6020649;29;20236;-68
2023/08/21 06:31:12;;;;;;;5.38;2.22;;;;;;;22.14;81.83;102245.28;6046418;29;20318;-68
2023/08/21 06:34:33;;;;;;;8.02;2.05;;;;;;;21.75;81.65;102241.63;6058671;29;20317;-67
2023/08/21 06:37:55;;;;;;;5.75;2.25;;;;;;;22.02;81.42;102246.72;6036456;29;20801;-67
2023/08/21 06:41:16;;;;;;;5.35;2.00;;;;;;;22.33;81.11;102243.13;6056109;29;20257;-66
2023/08/21 06:44:38;;;;;;;4.50;2.38;;;;;;;22.63;79.00;102242.31;6051404;29;20540;-67
2023/08/21 06:47:59;;;;;;;3.72;1.67;;;;;;;22.27;78.40;102239.22;6057314;29;20234;-68
2023/08/21 06:51:20;;;;;;;5.32;1.95;;;;;;;22.25;78.30;102250.41;6037295;29;20233;-68
2023/08/21 06:54:41;;;;;;;4.78;2.85;;;;;;;22.61;77.14;102250.72;6047749;29;20245;-68
2023/08/21 06:58:02;;;;;;;3.33;1.52;;;;;;;22.47;76.48;102245.09;6046321;29;20600;-66
2023/08/21 07:01:25;;;;;;;4.20;1.60;;;;;;;22.46;76.61;102252.53;6056550;29;20240;-68
2023/08/21 07:04:46;;;;;;;4.50;1.60;;;;;;;22.61;75.73;102250.72;6049946;29;20245;-65
2023/08/21 07:08:06;;;;;;;6.45;1.67;;;;;;;22.56;75.46;102257.78;6051357;29;20241;-67
2023/08/21 07:11:27;;;;;;;3.95;1.73;;;;;;;22.53;74.46;102253.50;6067035;29;20252;-66
2023/08/21 07:14:48;;;;;;;9.02;2.15;;;;;;;22.01;75.13;102255.09;6056185;29;20225;-66
2023/08/21 07:18:10;;;;;;;6.05;2.22;;;;;;;21.94;75.74;102252.25;6028345;29;20797;-69
2023/08/21 07:21:31;;;;;;;3.17;1.52;;;;;;;22.21;75.84;102248.19;6056298;29;20233;-68
2023/08/21 07:24:54;;;;;;;10.18;4.75;;;;;;;22.78;74.33;102252.34;6058588;29;20240;-69
2023/08/21 07:28:15;;;;;;;2.78;1.38;;;;;;;23.34;73.00;102241.97;6054755;29;20240;-68
2023/08/21 07:31:36;;;;;;;6.82;1.77;;;;;;;22.72;71.92;102244.81;6051396;29;20236;-68
2023/08/21 07:34:58;;;;;;;3.33;1.55;;;;;;;23.27;72.39;102254.72;6051925;29;20233;-68
2023/08/21 07:38:19;;;;;;;1.42;1.08;;;;;;;22.96;71.36;102250.16;6053409;29;20240;-67
2023/08/21 07:41:40;;;;;;;4.07;1.45;;;;;;;22.73;72.24;102254.78;6051756;29;20574;-67
2023/08/21 07:45:01;;;;;;;1.45;1.10;;;;;;;23.37;71.55;102252.59;6062643;29;20592;-70
2023/08/21 07:48:22;;;;;;;3.65;1.63;;;;;;;23.52;70.15;102256.25;6048001;29;20241;-69
2023/08/21 07:51:44;;;;;;;2.40;1.10;;;;;;;23.54;69.18;102256.91;6063011;29;20327;-68
2023/08/21 07:55:05;;;;;;;3.75;1.17;;;;;;;23.42;69.78;102259.28;6059414;29;20253;-67
2023/08/21 07:58:26;;;;;;;4.07;1.17;;;;;;;23.50;68.75;102256.44;6066968;29;20229;-68
2023/08/21 08:01:47;;;;;;;4.07;1.77;;;;;;;23.42;68.44;102261.16;6046449;29;20241;-70
2023/08/21 08:05:09;;;;;;;2.33;1.83;;;;;;;23.48;68.72;102255.75;6045952;29;20238;-67
2023/08/21 08:08:31;;;;;;;4.72;1.77;;;;;;;23.64;69.03;102255.59;6053454;29;20320;-68
2023/08/21 08:11:52;;;;;;;2.78;1.65;;;;;;;23.96;68.18;102259.91;6042459;29;20241;-68
2023/08/21 08:15:13;;;;;;;3.88;1.65;;;;;;;23.77;66.89;102255.81;6048768;29;20232;-68
2023/08/21 08:18:33;;;;;;;2.83;1.15;;;;;;;23.46;66.12;102257.84;6052187;29;20265;-67
2023/08/21 08:21:54;;;;;;;3.47;1.33;;;;;;;23.39;66.65;102262.38;6041680;29;20299;-66
2023/08/21 08:25:17;;;;;;;2.05;1.10;;;;;;;23.86;66.31;102258.47;6049427;29;20589;-67
2023/08/21 08:28:37;;;;;;;2.08;0.88;;;;;;;23.87;64.60;102260.16;6054786;29;20257;-68
2023/08/21 08:31:58;;;;;;;5.75;2.08;;;;;;;23.40;64.52;102260.50;6048847;29;20241;-70
2023/08/21 08:35:19;;;;;;;4.07;1.38;;;;;;;23.70;64.79;102254.84;6065251;29;20229;-70
2023/08/21 08:38:40;;;;;;;2.08;1.00;;;;;;;23.43;64.27;102260.09;6060151;29;20234;-69
2023/08/21 08:42:07;;;;;;;3.95;1.27;;;;;;;23.45;62.97;102263.53;6059807;29;20632;-69
2023/08/21 08:45:31;;;;;;;3.25;2.05;;;;;;;23.80;63.22;102249.91;6066672;29;20619;-71
2023/08/21 08:48:52;;;;;;;0.57;0.57;;;;;;;23.59;62.15;102257.22;6042439;29;20241;-70
2023/08/21 08:52:15;;;;;;;4.70;1.70;;;;;;;23.23;63.32;102257.00;6058792;29;20237;-70
2023/08/21 08:55:36;;;;;;;0.98;0.90;;;;;;;23.56;63.52;102261.19;6078468;29;20232;-69
2023/08/21 08:58:58;;;;;;;1.98;1.10;;;;;;;23.39;63.01;102267.03;6061512;29;20622;-70
2023/08/21 09:02:26;;;;;;;0.98;0.77;;;;;;;23.52;62.48;102259.84;6050227;29;20237;-71
2023/08/21 09:05:49;;;;;;;3.00;1.08;;;;;;;23.75;60.87;102266.16;6066375;29;20271;-70
2023/08/21 09:09:12;;;;;;;1.80;1.10;;;;;;;23.70;61.55;102268.59;6066683;29;20232;-70
2023/08/21 09:12:33;;;;;;;3.08;1.10;;;;;;;23.77;61.47;102260.44;6072947;29;20616;-70
2023/08/21 09:15:56;;;;;;;2.90;1.45;;;;;;;24.08;60.33;102261.16;6068667;29;20500;-70
2023/08/21 09:19:22;;;;;;;2.28;0.70;;;;;;;23.56;61.80;102266.69;6059678;29;20731;-69
2023/08/21 09:22:54;;;;;;;2.58;1.13;;;;;;;24.07;61.38;102276.00;6069462;29;20237;-70
2023/08/21 09:26:20;;;;;;;2.28;1.10;;;;;;;24.22;60.76;102270.47;6072121;29;20975;-69
2023/08/21 09:29:41;;;;;;;2.10;1.00;;;;;;;23.61;61.68;102266.97;6058211;29;20265;-70
2023/08/21 09:33:04;;;;;;;1.65;1.05;;;;;;;23.80;61.50;102260.09;6065002;29;20561;-68
2023/08/21 09:36:25;;;;;;;2.03;1.00;;;;;;;24.24;60.88;102255.44;6072782;29;20269;-70
2023/08/21 09:39:46;;;;;;;4.93;1.30;;;;;;;24.13;61.74;102255.94;6057280;29;20268;-70
2023/08/21 09:43:09;;;;;;;1.48;0.82;;;;;;;24.38;59.86;102251.81;6074123;29;20244;-70
2023/08/21 09:46:30;;;;;;;1.83;0.93;;;;;;;24.45;59.73;102263.78;6069280;29;20241;-69
2023/08/21 09:49:53;;;;;;;1.13;1.02;;;;;;;24.37;60.01;102246.47;6065666;29;20225;-69
2023/08/21 09:53:14;;;;;;;2.30;1.27;;;;;;;24.42;60.25;102247.63;6072175;29;20753;-70
2023/08/21 09:56:37;;;;;;;3.42;1.23;;;;;;;24.07;60.67;102248.44;6070179;29;20316;-70
2023/08/21 09:59:59;;;;;;;3.10;1.23;;;;;;;24.45;61.00;102258.25;6051422;29;20324;-69
2023/08/21 10:03:21;;;;;;;2.53;1.40;;;;;;;24.72;59.87;102248.38;6054552;29;20241;-69
2023/08/21 10:06:45;;;;;;;2.00;0.93;;;;;;;24.92;57.99;102245.88;6058983;29;20241;-70
2023/08/21 10:10:07;;;;;;;1.40;1.30;;;;;;;25.06;59.41;102243.06;6056198;29;21682;-69
2023/08/21 10:13:29;;;;;;;3.15;0.95;;;;;;;25.22;58.40;102244.72;6051679;29;20241;-68
2023/08/21 10:16:51;;;;;;;1.35;1.00;;;;;;;24.88;58.20;102242.69;6058418;29;20232;-68
2023/08/21 10:20:12;;;;;;;3.03;1.05;;;;;;;24.64;58.76;102245.75;6051865;29;20233;-69
2023/08/21 10:23:38;;;;;;;1.80;0.93;;;;;;;24.77;57.12;102248.69;6049263;29;20241;-70
2023/08/21 10:27:00;;;;;;;1.35;0.90;;;;;;;25.10;56.13;102244.38;6048672;29;20320;-69
2023/08/21 10:30:23;;;;;;;5.78;1.02;;;;;;;25.50;55.36;102242.84;6051132;29;20225;-69
2023/08/21 10:33:47;;;;;;;2.85;1.13;;;;;;;25.44;55.68;102246.41;6043574;29;20224;-68
2023/08/21 10:37:13;;;;;;;2.40;0.82;;;;;;;25.22;55.80;102248.31;6053859;29;20330;-69
2023/08/21 10:40:35;;;;;;;1.25;1.10;;;;;;;25.74;56.08;102258.94;6066851;29;20228;-69
2023/08/21 10:43:57;;;;;;;3.83;0.75;;;;;;;25.39;54.07;102249.72;6051410;29;20241;-68
2023/08/21 10:47:19;;;;;;;3.65;1.63;;;;;;;25.75;54.04;102246.84;6073290;29;20333;-70
2023/08/21 10:50:40;;;;;;;3.72;2.08;;;;;;;25.97;52.97;102244.88;6058106;29;20236;-67
2023/08/21 10:54:11;;;;;;;2.35;1.20;;;;;;;26.69;54.10;102232.25;6044192;29;21184;-72
2023/08/21 10:57:34;;;;;;;1.70;0.82;;;;;;;27.18;53.01;102248.53;6066627;29;20233;-74
2023/08/21 11:00:59;;;;;;;1.67;1.00;;;;;;;27.52;52.88;102250.28;6059032;29;20228;-76
2023/08/21 11:04:19;;;;;;;2.75;0.88;;;;;;;27.64;52.27;102248.59;6047658;29;20235;-79
2023/08/21 11:07:43;;;;;;;4.15;0.85;;;;;;;26.98;51.41;102241.25;6058058;29;20312;-77
2023/08/21 11:11:06;;;;;;;0.70;0.70;;;;;;;27.08;52.00;102241.72;6055237;29;20287;-73
2023/08/21 11:14:28;;;;;;;7.43;1.17;;;;;;;27.41;50.62;102243.44;6053684;29;20233;-69
2023/08/21 11:17:55;;;;;;;1.33;1.02;;;;;;;27.72;50.27;102244.72;6066695;29;20360;-69
2023/08/21 11:21:15;;;;;;;2.90;1.30;;;;;;;27.93;49.48;102247.25;6041751;29;20336;-68
2023/08/21 11:24:41;;;;;;;1.10;0.90;;;;;;;27.82;49.84;102240.44;6046440;29;20564;-68
2023/08/21 11:28:02;;;;;;;1.23;1.05;;;;;;;27.89;48.38;102244.03;6066923;29;20260;-67
2023/08/21 11:31:24;;;;;;;0.63;0.57;;;;;;;27.82;47.80;102237.66;6046726;29;20237;-69
2023/08/21 11:34:49;;;;;;;1.05;0.70;;;;;;;29.31;47.41;102237.19;6057611;29;20237;-68
2023/08/21 11:38:16;;;;;;;3.17;2.80;;;;;;;29.69;46.17;102239.84;6066337;29;20233;-69
2023/08/21 11:41:55;;;;;;;2.80;2.33;;;;;;;29.47;46.83;102244.97;6062032;29;20236;-67
2023/08/21 11:45:15;;;;;;;1.45;1.00;;;;;;;28.42;48.38;102250.31;6043467;29;20236;-67
2023/08/21 11:48:39;;;;;;;2.28;0.73;;;;;;;28.44;47.45;102248.16;6046335;29;20241;-69
2023/08/21 11:52:00;;;;;;;2.42;0.60;;;;;;;29.54;44.91;102237.41;6050534;29;20331;-68
2023/08/21 11:55:21;;;;;;;2.53;1.10;;;;;;;31.33;43.54;102236.63;6062653;29;20244;-69
2023/08/21 11:58:43;;;;;;;0.68;0.65;;;;;;;33.09;39.81;102239.75;6049272;29;20237;-69
2023/08/21 12:02:16;;;;;;;1.25;0.70;;;;;;;34.75;35.60;102238.66;6061964;29;20225;-68
2023/08/21 12:05:43;;;;;;;2.78;0.55;;;;;;;36.98;32.41;102242.72;6059179;29;20236;-69
2023/08/21 12:09:05;;;;;;;1.33;0.80;;;;;;;37.23;31.76;102243.63;6047859;29;20240;-69
2023/08/21 12:12:26;;;;;;;1.80;0.88;;;;;;;38.63;31.78;102232.34;6075175;29;20270;-70
2023/08/21 12:15:47;;;;;;;1.52;1.17;;;;;;;38.44;30.96;102234.97;6065556;29;20236;-68
2023/08/21 12:19:09;;;;;;;1.25;1.15;;;;;;;37.80;30.86;102234.06;6043624;29;20248;-68
2023/08/21 12:22:31;;;;;;;1.80;0.80;;;;;;;38.40;29.58;102236.69;6065823;29;20249;-69
2023/08/21 12:25:52;;;;;;;1.52;1.10;;;;;;;38.25;29.97;102237.59;6059631;29;20232;-68
2023/08/21 12:29:13;;;;;;;0.82;0.60;;;;;;;37.77;29.13;102234.59;6058541;29;20244;-69
2023/08/21 12:32:34;;;;;;;1.83;1.10;;;;;;;37.64;30.46;102230.38;6058915;29;20324;-67
2023/08/21 12:35:55;;;;;;;1.17;1.10;;;;;;;38.09;29.49;102235.09;6046386;29;20237;-68
2023/08/21 12:39:18;;;;;;;2.30;1.02;;;;;;;35.42;31.99;102236.25;6040378;29;20690;-69
2023/08/21 12:42:39;;;;;;;0.93;0.73;;;;;;;37.47;29.14;102238.28;6057942;29;20237;-67
2023/08/21 12:46:00;;;;;;;3.63;1.13;;;;;;;34.83;32.32;102230.63;6068736;29;20272;-68
2023/08/21 12:49:21;;;;;;;1.10;1.00;;;;;;;34.08;32.61;102226.84;6048796;29;20944;-67
2023/08/21 12:52:42;;;;;;;1.13;0.80;;;;;;;35.87;30.18;102229.00;6055980;29;20259;-69
2023/08/21 12:56:04;;;;;;;2.17;0.90;;;;;;;37.11;29.57;102223.34;6053591;29;20245;-67
2023/08/21 12:59:25;;;;;;;1.92;1.15;;;;;;;37.28;29.21;102226.72;6043830;29;20238;-68
2023/08/21 13:02:46;;;;;;;1.77;1.40;;;;;;;37.61;30.45;102228.16;6057582;29;20320;-70
2023/08/21 13:06:07;;;;;;;6.65;6.00;;;;;;;37.64;28.76;102219.97;6059622;29;20241;-68
2023/08/21 13:09:27;;;;;;;1.35;0.90;;;;;;;35.72;30.21;102228.06;6040785;29;20233;-69
2023/08/21 13:12:49;;;;;;;1.25;1.05;;;;;;;35.76;29.33;102213.22;6051964;29;20241;-68
2023/08/21 13:16:10;;;;;;;0.77;0.60;;;;;;;37.39;28.43;102217.19;6061318;29;20237;-68
2023/08/21 13:19:32;;;;;;;1.17;0.68;;;;;;;35.85;29.64;102220.03;6059678;29;20236;-67
2023/08/21 13:22:53;;;;;;;0.60;0.60;;;;;;;35.64;29.58;102208.91;6070405;29;20237;-69
2023/08/21 13:26:14;;;;;;;1.60;0.95;;;;;;;36.38;29.88;102204.84;6065048;29;20241;-68
2023/08/21 13:29:36;;;;;;;1.90;0.88;;;;;;;36.08;29.12;102199.94;6044449;29;20244;-68
2023/08/21 13:32:57;;;;;;;1.20;0.98;;;;;;;36.85;29.15;102201.91;6059676;29;20260;-68
2023/08/21 13:36:19;;;;;;;3.60;1.17;;;;;;;36.74;29.06;102203.00;6062181;29;20966;-69
2023/08/21 13:39:41;;;;;;;4.68;0.90;;;;;;;36.32;30.67;102205.13;6066071;29;20307;-69
2023/08/21 13:43:03;;;;;;;1.77;1.25;;;;;;;37.43;30.25;102200.56;6066020;29;20237;-70
2023/08/21 13:46:25;;;;;;;1.63;1.10;;;;;;;38.68;28.69;102195.69;6065141;29;21805;-69
2023/08/21 13:49:45;;;;;;;1.23;1.10;;;;;;;37.73;28.37;102188.41;6045184;29;20236;-69
2023/08/21 13:53:07;;;;;;;2.45;1.00;;;;;;;36.35;29.43;102196.13;6065273;29;20325;-70
2023/08/21 13:56:28;;;;;;;1.02;0.80;;;;;;;35.92;29.13;102184.09;6057147;29;20228;-70
2023/08/21 13:59:49;;;;;;;0.70;0.70;;;;;;;36.52;28.75;102193.97;6054935;29;20244;-69
2023/08/21 14:03:14;;;;;;;3.25;1.17;;;;;;;37.04;28.90;102185.34;6061396;29;20620;-69
2023/08/21 14:06:34;;;;;;;2.67;1.25;;;;;;;35.62;30.73;102192.34;6067483;29;20237;-67
2023/08/21 14:09:55;;;;;;;1.73;0.88;;;;;;;36.34;31.09;102186.84;6064059;29;20234;-69
2023/08/21 14:13:16;;;;;;;1.00;0.90;;;;;;;36.01;30.51;102182.50;6061474;29;20221;-69
2023/08/21 14:16:37;;;;;;;1.85;0.80;;;;;;;36.36;30.32;102184.63;6063604;29;20559;-69
2023/08/21 14:19:59;;;;;;;2.38;1.10;;;;;;;36.37;29.56;102188.25;6062083;29;20240;-69
2023/08/21 14:23:20;;;;;;;0.47;0.47;;;;;;;35.06;31.12;102181.78;6066452;29;20237;-68
2023/08/21 14:26:40;;;;;;;1.40;1.08;;;;;;;33.27;32.30;102174.38;6058794;29;20328;-69
2023/08/21 14:30:01;;;;;;;1.45;0.90;;;;;;;33.72;32.53;102183.47;6056744;29;20688;-68
2023/08/21 14:33:23;;;;;;;1.08;0.70;;;;;;;33.29;32.60;102173.03;6053524;29;20268;-69
2023/08/21 14:36:45;;;;;;;1.48;1.38;;;;;;;33.25;34.69;102173.78;6066237;29;20233;-69
2023/08/21 14:40:08;;;;;;;3.10;1.38;;;;;;;33.16;33.71;102169.69;6066553;29;20244;-69
2023/08/21 14:43:32;;;;;;;2.47;1.30;;;;;;;32.53;34.58;102173.56;6066337;29;20237;-69
2023/08/21 14:46:55;;;;;;;1.40;1.25;;;;;;;32.36;34.62;102167.06;6065836;29;21025;-68
2023/08/21 14:50:16;;;;;;;1.50;1.38;;;;;;;32.32;34.42;102165.84;6059515;29;20241;-68
2023/08/21 14:53:38;;;;;;;1.80;1.15;;;;;;;31.80;35.26;102162.22;6070524;29;20858;-69
2023/08/21 14:56:59;;;;;;;1.80;1.00;;;;;;;31.61;34.98;102168.16;6064890;29;20229;-69
2023/08/21 15:00:20;;;;;;;2.13;1.08;;;;;;;31.53;35.67;102166.59;6070488;29;20243;-68
2023/08/21 15:03:42;;;;;;;1.05;0.77;;;;;;;31.52;34.91;102157.38;6052785;29;20237;-69
2023/08/21 15:07:03;;;;;;;3.28;1.25;;;;;;;30.76;36.08;102151.81;6060682;29;20814;-69
2023/08/21 15:10:26;;;;;;;1.48;1.30;;;;;;;30.23;36.19;102147.22;6068567;29;20248;-68
2023/08/21 15:13:47;;;;;;;1.20;1.00;;;;;;;31.07;36.08;102150.69;6047997;29;20237;-69
2023/08/21 15:17:08;;;;;;;2.65;1.00;;;;;;;31.18;35.82;102147.06;6073250;29;20616;-69
2023/08/21 15:20:29;;;;;;;3.97;1.30;;;;;;;31.58;35.84;102140.78;6059448;29;20232;-69
2023/08/21 15:23:50;;;;;;;1.83;1.13;;;;;;;31.19;35.36;102133.94;6054618;29;20253;-68
2023/08/21 15:27:13;;;;;;;1.33;0.82;;;;;;;31.50;34.32;102133.66;6076502;29;20237;-68
2023/08/21 15:30:34;;;;;;;0.98;0.93;;;;;;;31.51;34.45;102124.19;6078505;29;20239;-69
2023/08/21 15:33:55;;;;;;;1.20;0.90;;;;;;;31.57;36.06;102125.13;6060530;29;20233;-69
2023/08/21 15:37:16;;;;;;;1.23;0.95;;;;;;;31.48;34.82;102119.94;6076844;29;20241;-70